Aktualne dane pomiarowe

Uwaga, wersja testowa! Automatyczne pobieranie danych za pomocą narzędzi lub skryptów to umożliwiających jest zabronione.

Dane meteo z obszaru Polski uzyskane na podstawie depesz SYNOP pobieranych co godzinę z NWS. Najedź myszką na symbol przedstawiony w tabeli, aby uzyskać informacje co do jego znaczenia. Prosimy pamiętać, że to testowa wersja strony, która jeszcze nie jest ukończona. Stworzono również jest krótki FAQ dotyczący korzystania z tej podstrony Anomalie temperatury w chwili obecnej odniesione są do okresu referencyjnego 1951-2016. Okres ten będzie później zmieniony na 1981-2010. Kliknij ikonę aby pobrać plik CSV. Kliknij ikonę aby wygenerować mapę synoptyczną dla danego terminu.

Wybierz Datę:    

        

Krosno (12670)

Dane terminowe dla wybranej stacji. Kliknij datę, aby otrzymać dane z tego terminu dla wszystkich stacji.

TemperaturaZachmurzenieWiatrCiśnienieOpadyPogoda
 Data t td wb tx tn tg rh  Nt Nl Cl Cm Ch ws wd g1 g2 wx mslp ppp ch 24h 12h t ww ww w1 w2  
2019-08-09 23:00:00 15.6 12.3 13.4--- 8124.0wx-3wx--31015.4 976.4 0.0----22----
2019-08-09 22:00:00 18.0 11.9 14.1--- 6829.0wx-2wx--21015.4 976.7 0.6----22----
2019-08-09 21:00:00 18.7 11.4 14.2--- 6325.0wx-wx2wx---1015.0 976.4 0.9---------
2019-08-09 20:00:00 19.7 12.1 14.9--- 6221.0wx-wxwx2wx--21014.9 976.4 1.2----22----
2019-08-09 19:00:00 21.4 12.1 15.7--- 5525.0wx-wxwx2wx--21014.3 976.1 1.1---------
2019-08-09 18:00:00 23.1 10.9 15.8 26.5 17.7- 4616.0wxwxwxwxwx2wx--21013.5 975.5 0.4- 0.012------
2019-08-09 17:00:00 24.4 10.7 16.3--- 4235.0wxwxwxwxwx3wx---1013.0 975.2 0.1---------
2019-08-09 16:00:00 25.7 10.4 16.6--- 3835.0wxwxwxwx3wx---1012.6 975.0 -0.2---------
2019-08-09 15:00:00 25.8 10.5 16.7--- 3840.0wxwxwxwxwx4wx--41012.7 975.1 -0.4---------
2019-08-09 14:00:00 26.2 10.4 16.9--- 3740.0wxwxwxwx5wx--51012.7 975.1 -0.7---------
2019-08-09 13:00:00 25.7 11.9 17.3--- 4235.0wxwxwxwxwx4wx--41012.8 975.2 -1.0---------
2019-08-09 12:00:00 25.5 11.4 17.0--- 4135.0wxwxwxwx4wx111141013.2 975.5 -1.0- 0.06------
2019-08-09 11:00:00 25.0 10.5 16.4--- 4030.0wxwxwxwx4wx---1013.5 975.8 -0.7---------
2019-08-09 10:00:00 23.9 13.5 17.4--- 5230.0wxwxwx3wx--31014.1 976.2 -0.2---------
2019-08-09 09:00:00 22.9 14.3 17.4--- 5829.0wxwxwx3wx--31014.5 976.5 -0.1---------
2019-08-09 08:00:00 21.6 14.8 17.2--- 6540.0wxwxwx2wx--21014.7 976.5 0.3---------
2019-08-09 07:00:00 19.6 13.4 15.6--- 6725.0wxwxwx1wx--11014.9 976.4 0.3---------
2019-08-09 06:00:00 17.9 13.5 15.0 21.3 13.5 13 7527.0wxwxwxwx1wx--11015.3 976.6 0.6- 0.012----- 6.1
2019-08-09 05:00:00 16.2 13.4 14.3--- 8427.0wxwxwxwx1wx--11015.1 976.2 0.3---------
2019-08-09 04:00:00 14.4 13.1 13.5--- 9215.0wxwxwxwx2wx--21015.3 976.1 0.3---------
2019-08-09 03:00:00 13.8 12.4 12.8--- 9115.0wxwxwxwx2wx--21015.2 976.0 0.1---------
2019-08-09 02:00:00 13.9 12.8 13.1--- 9315.0wxwxwxwx1wx--11015.1 975.9 0.0---------
2019-08-09 01:00:00 14.9 13.1 13.6--- 8917.0wxwxwxwx3wx---1014.9 975.8 0.1---------
2019-08-09 00:00:00 15.0 12.9 13.5--- 8715.0wx-wx3wx--31015.0 975.9 0.3- 0.06------
2019-08-08 23:00:00 15.4 13.2 13.9--- 8714.0wx-wx3wx--31014.9 975.9 0.6---------
2019-08-08 22:00:00 16.6 12.8 14.1--- 7821.0wx-wx2wx--21014.5 975.7 0.7---------
2019-08-08 21:00:00 16.1 13.5 14.3--- 8515.0wx-wx2wx--21014.5 975.6 1.0---------
2019-08-08 20:00:00 17.5 13.5 14.8--- 7718.0wx-wxwx2wx---1014.0 975.3 0.9---------
2019-08-08 19:00:00 20.0 13.5 15.8--- 6626.0wx-wx1wx--11013.4 975.0 0.7---------
2019-08-08 18:00:00 21.0 13.3 16.1 24.0 17.9- 6130.0wxwxwxwx1wx--11012.8 974.6 0.1--12------
2019-08-08 17:00:00 22.4 14.6 17.4--- 6135.0wxwxwxwx1wx--11012.4 974.4 -0.1---------
2019-08-08 16:00:00 22.7 13.3 16.8--- 5535.0wxwxwxwx2wx---1012.3 974.3 0.0---------
2019-08-08 15:00:00 23.7 13.9 17.5--- 5428.0wxwxwxwx3wx---1012.4 974.5 0.1---------
2019-08-08 14:00:00 22.8 13.7 17.0--- 5730.0wxwxwxwx3wx--31012.5 974.5 0.2---------
2019-08-08 13:00:00 22.6 14.5 17.4--- 6035.0wxwxwxwx4wx--41012.3 974.3 0.3---------
2019-08-08 12:00:00 22.8 15.0 17.7--- 6130.0wxwxwxwx4wx-1141012.4 974.4 0.6--6wx-w1--
2019-08-08 11:00:00 22.1 14.8 17.3--- 6325.0wxwxwx5wx--51012.4 974.3 1.0---------
2019-08-08 10:00:00 20.4 15.1 16.9--- 7228.0wxwxwx5wx--51012.3 974.0 1.6---------
2019-08-08 09:00:00 19.0 15.6 16.7--- 8135.0wxwxwx5wx-1151012.2 973.8 2.2---wx---
2019-08-08 08:00:00 18.6 15.8 16.6--- 8435.0wxwxwx4wx-1041011.8 973.3 2.7---------
2019-08-08 07:00:00 18.7 16.4 17.1--- 8735.0wxwxwx5wx101151010.8 972.4 2.4---------
2019-08-08 06:00:00 17.9 16.7 17.0 21.4 17.4 17 9350.0wxwxwx3wx-1531010.1 971.6 2.4 25.1 10.012wx-w1w2- 8.2
2019-08-08 05:00:00 17.7 17.0 17.2--- 9635.0wxwxwxwxwx2wx---1009.1 970.6 1.7---wx---
2019-08-08 04:00:00 17.5 16.8 17.0--- 9621.0wxwxwxwx4wx---1008.5 970.0 1.8---wx-w1w2--
2019-08-08 03:00:00 17.5 16.8 17.0--- 9613.0wxwxwx3wx-1531007.7 969.2 0.2---wx-w1--
2019-08-08 02:00:00 18.3 17.4 17.6--- 951.5wxwxwx2wx-1421007.2 968.9 -0.2---wx-w1w2--
2019-08-08 01:00:00 19.9 16.4 17.5--- 808.0wxwxwx7wx151571006.3 968.2 -1.3---wx-w1--
2019-08-08 00:00:00 20.8 17.3 18.4--- 8030.0wx-wx1wx--11007.0 969.0 -0.6- 0.06------
1.9 ms

 

Print Friendly, PDF & Email